Time;durP1;ratioP1;P1;durP2;ratioP2;P2;SDS_P1;SDS_P2;PMS_P1;PMS_P2;Temp;Humidity;BMP_temperature;BMP_pressure;BME280_temperature;BME280_humidity;BME280_pressure;Samples;Min_cycle;Max_cycle;Signal;HPM_P1;HPM_P2
2022/04/27 00:01:17;;;;;;;;;;;;;;;12.84;77.72;99643.34;5175410;27;1064;-55
2022/04/27 00:03:44;;;;;;;;;;;;;;;12.77;77.63;99640.72;5175396;27;888;-56
2022/04/27 00:06:11;;;;;;;;;;;;;;;12.70;77.88;99641.63;5175219;27;1889;-56
2022/04/27 00:08:38;;;;;;;;;;;;;;;12.68;78.21;99632.94;5175365;27;794;-55
2022/04/27 00:11:05;;;;;;;;;;;;;;;12.63;78.38;99639.75;5175124;27;849;-56
2022/04/27 00:13:32;;;;;;;;;;;;;;;12.62;77.84;99646.47;5175160;27;948;-57
2022/04/27 00:15:59;;;;;;;;;;;;;;;12.47;78.31;99645.13;5175153;27;821;-57
2022/04/27 00:18:26;;;;;;;;;;;;;;;12.28;78.26;99637.50;5175151;27;845;-57
2022/04/27 00:20:53;;;;;;;;;;;;;;;12.13;78.61;99639.69;5175190;27;805;-57
2022/04/27 00:23:21;;;;;;;;;;;;;;;11.99;79.86;99644.22;5174919;27;850;-57
2022/04/27 00:25:48;;;;;;;;;;;;;;;11.90;80.28;99634.84;5174553;27;1909;-57
2022/04/27 00:28:15;;;;;;;;;;;;;;;11.89;80.06;99634.06;5174890;27;1282;-57
2022/04/27 00:30:41;;;;;;;;;;;;;;;11.97;79.94;99627.25;5174847;27;947;-57
2022/04/27 00:33:11;;;;;;;;;;;;;;;12.05;79.90;99648.13;5174945;27;825;-57
2022/04/27 00:35:38;;;;;;;;;;;;;;;12.21;78.14;99655.03;5175103;27;845;-57
2022/04/27 00:38:05;;;;;;;;;;;;;;;12.43;78.03;99647.16;5174652;27;907;-55
2022/04/27 00:40:32;;;;;;;;;;;;;;;12.42;79.10;99654.72;5174576;27;916;-56
2022/04/27 00:42:59;;;;;;;;;;;;;;;12.39;79.81;99646.44;5174571;27;908;-55
2022/04/27 00:45:26;;;;;;;;;;;;;;;12.33;80.40;99653.66;5174622;27;789;-55
2022/04/27 00:47:51;;;;;;;;;;;;;;;12.32;80.93;99660.41;5174474;27;1941;-56
2022/04/27 00:50:18;;;;;;;;;;;;;;;12.40;81.74;99656.34;5174532;27;805;-54
2022/04/27 00:52:45;;;;;;;;;;;;;;;12.45;82.23;99655.84;5174478;27;904;-54
2022/04/27 00:55:12;;;;;;;;;;;;;;;12.50;82.69;99662.91;5174443;27;802;-55
2022/04/27 00:57:39;;;;;;;;;;;;;;;12.50;82.78;99665.69;5174337;27;922;-56
2022/04/27 01:00:07;;;;;;;;;;;;;;;12.46;83.56;99655.44;5174330;27;924;-55
2022/04/27 01:02:37;;;;;;;;;;;;;;;12.45;83.23;99653.09;5174055;27;926;-56
2022/04/27 01:05:09;;;;;;;;;;;;;;;12.41;83.48;99655.13;5174498;27;905;-55
2022/04/27 01:07:37;;;;;;;;;;;;;;;12.42;83.52;99653.94;5174174;27;1893;-55
2022/04/27 01:10:05;;;;;;;;;;;;;;;12.40;83.21;99656.34;5174226;27;837;-56
2022/04/27 01:12:32;;;;;;;;;;;;;;;12.34;83.12;99660.78;5174118;27;925;-56
2022/04/27 01:15:03;;;;;;;;;;;;;;;12.27;83.26;99650.59;5155540;27;1312;-54
2022/04/27 01:17:30;;;;;;;;;;;;;;;12.23;83.11;99644.31;5174041;27;932;-56
2022/04/27 01:19:58;;;;;;;;;;;;;;;12.16;83.11;99641.63;5174186;27;869;-56
2022/04/27 01:22:24;;;;;;;;;;;;;;;12.04;83.34;99635.44;5174112;27;1232;-56
2022/04/27 01:24:51;;;;;;;;;;;;;;;12.02;83.39;99637.06;5174032;27;857;-56
2022/04/27 01:27:18;;;;;;;;;;;;;;;12.03;82.91;99631.13;5173793;27;1980;-57
2022/04/27 01:29:45;;;;;;;;;;;;;;;11.95;83.24;99632.41;5173996;27;904;-56
2022/04/27 01:32:12;;;;;;;;;;;;;;;11.90;81.23;99634.84;5174061;27;952;-57
2022/04/27 01:34:39;;;;;;;;;;;;;;;12.02;80.27;99635.06;5173906;27;869;-56
2022/04/27 01:39:52;;;;;;;;;;;;;;;12.09;79.54;99633.41;5174181;27;675;-56
2022/04/27 01:42:20;;;;;;;;;;;;;;;12.08;80.10;99631.84;5173980;27;1130;-56
2022/04/27 01:44:46;;;;;;;;;;;;;;;12.08;80.17;99632.63;5173956;27;846;-56
2022/04/27 01:47:13;;;;;;;;;;;;;;;12.08;80.32;99632.63;5173817;27;1954;-56
2022/04/27 01:49:39;;;;;;;;;;;;;;;12.19;79.04;99633.25;5155191;27;1284;-57
2022/04/27 01:54:51;;;;;;;;;;;;;;;12.36;74.85;99628.66;5174102;27;667;-57
2022/04/27 01:57:18;;;;;;;;;;;;;;;12.58;74.65;99633.88;5174153;27;809;-57
2022/04/27 01:59:45;;;;;;;;;;;;;;;12.74;73.46;99631.25;5173831;27;809;-56
2022/04/27 02:02:12;;;;;;;;;;;;;;;12.88;72.14;99633.00;5173651;27;1095;-57
2022/04/27 02:04:40;;;;;;;;;;;;;;;12.82;72.99;99640.22;5173778;27;794;-56
2022/04/27 02:07:08;;;;;;;;;;;;;;;12.57;74.12;99633.09;5173525;27;1893;-57
2022/04/27 02:09:35;;;;;;;;;;;;;;;12.46;74.28;99636.03;5173497;27;951;-57
2022/04/27 02:12:03;;;;;;;;;;;;;;;12.60;71.69;99637.03;5173615;27;917;-56
2022/04/27 02:14:30;;;;;;;;;;;;;;;12.94;70.26;99649.94;5158153;27;853;-56
2022/04/27 02:16:57;;;;;;;;;;;;;;;12.91;70.64;99643.25;5177665;27;829;-57
2022/04/27 02:19:24;;;;;;;;;;;;;;;12.63;72.92;99648.06;5177441;27;929;-56
2022/04/27 02:21:51;;;;;;;;;;;;;;;12.35;75.17;99656.78;5177694;27;927;-56
2022/04/27 02:24:18;;;;;;;;;;;;;;;12.10;76.58;99646.84;5177328;27;849;-57
2022/04/27 02:26:45;;;;;;;;;;;;;;;11.91;77.41;99644.75;5176901;27;1909;-57
2022/04/27 02:29:12;;;;;;;;;;;;;;;11.67;78.50;99641.84;5177258;27;893;-57
2022/04/27 02:31:39;;;;;;;;;;;;;;;11.51;79.96;99644.41;5177277;27;833;-57
2022/04/27 02:34:06;;;;;;;;;;;;;;;11.44;80.19;99637.75;5177318;27;824;-57
2022/04/27 02:36:33;;;;;;;;;;;;;;;11.37;80.39;99642.56;5177485;27;844;-57
2022/04/27 02:39:00;;;;;;;;;;;;;;;11.45;78.39;99638.50;5177005;27;853;-57
2022/04/27 02:41:26;;;;;;;;;;;;;;;11.49;77.22;99639.25;5177064;27;865;-56
2022/04/27 02:43:53;;;;;;;;;;;;;;;11.33;76.96;99645.38;5177212;27;797;-56
2022/04/27 02:46:20;;;;;;;;;;;;;;;11.09;77.17;99638.88;5176860;27;1952;-57
2022/04/27 02:51:51;;;;;;;;;;;;;;;10.66;76.62;99642.03;5177276;27;604;-56
2022/04/27 02:54:18;;;;;;;;;;;;;;;10.70;76.00;99639.25;5176818;27;932;-56
2022/04/27 02:56:45;;;;;;;;;;;;;;;10.71;75.50;99635.28;5176826;27;845;-56
2022/04/27 02:59:12;;;;;;;;;;;;;;;10.60;75.62;99630.63;5176809;27;873;-56
2022/04/27 03:01:39;;;;;;;;;;;;;;;10.64;74.37;99638.88;5176764;27;1023;-56
2022/04/27 03:04:06;;;;;;;;;;;;;;;10.72;74.08;99639.63;5176869;27;928;-56
2022/04/27 03:06:34;;;;;;;;;;;;;;;10.78;73.58;99643.53;5176486;27;2032;-56
2022/04/27 03:09:01;;;;;;;;;;;;;;;10.83;73.12;99659.66;5176476;27;837;-56
2022/04/27 03:11:28;;;;;;;;;;;;;;;10.75;73.44;99655.38;5176436;27;924;-56
2022/04/27 03:13:55;;;;;;;;;;;;;;;10.60;74.18;99663.81;5176639;27;808;-56
2022/04/27 03:16:22;;;;;;;;;;;;;;;10.55;75.63;99661.44;5176518;27;789;-56
2022/04/27 03:18:49;;;;;;;;;;;;;;;10.57;75.93;99666.59;5176297;27;988;-56
2022/04/27 03:21:16;;;;;;;;;;;;;;;10.58;75.92;99671.72;5176413;27;1555;-56
2022/04/27 03:23:43;;;;;;;;;;;;;;;10.56;76.33;99665.00;5176246;27;781;-56
2022/04/27 03:26:10;;;;;;;;;;;;;;;10.64;76.39;99669.28;5175896;27;1999;-56
2022/04/27 03:28:37;;;;;;;;;;;;;;;11.11;75.06;99658.63;5176258;27;839;-56
2022/04/27 03:31:04;;;;;;;;;;;;;;;11.50;74.16;99660.22;5176240;27;842;-56
2022/04/27 03:33:31;;;;;;;;;;;;;;;11.69;73.83;99666.31;5176107;27;884;-56
2022/04/27 03:35:58;;;;;;;;;;;;;;;11.84;73.40;99674.06;5176118;27;805;-56
2022/04/27 03:38:25;;;;;;;;;;;;;;;11.78;73.29;99681.25;5175865;27;939;-56
2022/04/27 03:40:52;;;;;;;;;;;;;;;11.63;73.37;99677.88;5157361;27;809;-57
2022/04/27 03:43:18;;;;;;;;;;;;;;;11.55;74.05;99673.59;5175896;27;924;-56
2022/04/27 03:45:45;;;;;;;;;;;;;;;11.54;73.73;99680.34;5176000;27;904;-57
2022/04/27 03:48:12;;;;;;;;;;;;;;;11.55;73.26;99679.13;5175788;27;1948;-56
2022/04/27 03:50:40;;;;;;;;;;;;;;;11.61;72.99;99685.78;5175802;27;801;-57
2022/04/27 03:53:07;;;;;;;;;;;;;;;11.66;72.45;99684.56;5175604;27;936;-56
2022/04/27 03:55:34;;;;;;;;;;;;;;;11.78;72.47;99686.78;5175863;27;786;-56
2022/04/27 03:58:03;;;;;;;;;;;;;;;11.90;72.38;99679.94;5175624;27;793;-56
2022/04/27 04:00:30;;;;;;;;;;;;;;;11.95;72.00;99687.81;5175401;27;873;-57
2022/04/27 04:03:00;;;;;;;;;;;;;;;12.05;72.13;99686.91;5175436;27;870;-56
2022/04/27 04:05:27;;;;;;;;;;;;;;;12.21;71.63;99691.03;5175333;27;889;-57
2022/04/27 04:07:53;;;;;;;;;;;;;;;12.39;71.83;99686.03;5175289;27;1886;-57
2022/04/27 04:10:20;;;;;;;;;;;;;;;12.64;70.75;99695.97;5175318;27;804;-57
2022/04/27 04:12:48;;;;;;;;;;;;;;;13.00;69.68;99703.75;5175211;27;1016;-57
2022/04/27 04:15:15;;;;;;;;;;;;;;;13.28;69.18;99702.47;5175231;27;907;-56
2022/04/27 04:17:45;;;;;;;;;;;;;;;13.41;69.76;99709.00;5175196;27;1019;-57
2022/04/27 04:20:13;;;;;;;;;;;;;;;13.56;70.19;99712.28;5175019;27;858;-56
2022/04/27 04:22:40;;;;;;;;;;;;;;;13.60;70.46;99721.34;5175018;27;841;-57
2022/04/27 04:30:38;;;;;;;;;;;;;;;14.23;68.93;99720.50;5175340;27;627;-56
2022/04/27 04:33:05;;;;;;;;;;;;;;;14.46;68.49;99727.94;5174915;27;844;-57
2022/04/27 04:35:32;;;;;;;;;;;;;;;14.67;68.07;99728.72;5174459;27;833;-56
2022/04/27 04:37:59;;;;;;;;;;;;;;;14.90;67.11;99731.34;5174535;27;906;-57
2022/04/27 04:40:26;;;;;;;;;;;;;;;15.13;66.40;99726.03;5174872;27;836;-57
2022/04/27 04:42:53;;;;;;;;;;;;;;;15.54;66.21;99722.59;5174759;27;809;-57
2022/04/27 04:45:18;;;;;;;;;;;;;;;16.11;64.23;99726.63;5174645;27;936;-57
2022/04/27 04:47:46;;;;;;;;;;;;;;;16.45;63.05;99721.66;5174418;27;1877;-57
2022/04/27 04:50:13;;;;;;;;;;;;;;;16.69;62.02;99722.91;5174566;27;798;-57
2022/04/27 04:52:40;;;;;;;;;;;;;;;16.91;61.24;99723.03;5174580;27;881;-57
2022/04/27 04:55:07;;;;;;;;;;;;;;;16.98;61.21;99724.81;5174452;27;881;-57
2022/04/27 04:57:34;;;;;;;;;;;;;;;17.08;61.44;99736.88;5174790;27;767;-57
2022/04/27 05:00:03;;;;;;;;;;;;;;;17.03;61.27;99737.44;5174313;27;870;-57
2022/04/27 05:02:33;;;;;;;;;;;;;;;17.01;60.62;99739.91;5174430;27;805;-57
2022/04/27 05:05:02;;;;;;;;;;;;;;;17.40;60.65;99744.19;5174379;27;825;-57
2022/04/27 05:07:30;;;;;;;;;;;;;;;17.83;59.78;99745.50;5174103;27;1881;-57
2022/04/27 05:09:57;;;;;;;;;;;;;;;18.16;58.00;99757.13;5155677;27;893;-57
2022/04/27 05:12:24;;;;;;;;;;;;;;;18.42;59.26;99742.97;5174279;27;817;-57
2022/04/27 05:14:52;;;;;;;;;;;;;;;18.68;58.86;99748.38;5174185;27;844;-57
2022/04/27 05:17:19;;;;;;;;;;;;;;;18.72;57.92;99757.44;5174055;27;893;-57
2022/04/27 05:19:48;;;;;;;;;;;;;;;18.65;58.41;99763.28;5174286;27;848;-57
2022/04/27 05:22:16;;;;;;;;;;;;;;;18.54;57.28;99758.09;5174411;27;947;-57
2022/04/27 05:24:43;;;;;;;;;;;;;;;18.48;57.58;99768.34;5174150;27;810;-57
2022/04/27 05:27:09;;;;;;;;;;;;;;;18.47;56.75;99769.56;5173623;27;1972;-57
2022/04/27 05:32:21;;;;;;;;;;;;;;;18.28;57.10;99775.03;5174361;27;654;-57
2022/04/27 05:34:48;;;;;;;;;;;;;;;18.09;57.97;99773.38;5173976;27;864;-57
2022/04/27 05:37:13;;;;;;;;;;;;;;;17.94;58.99;99779.50;5173968;27;809;-57
2022/04/27 05:39:40;;;;;;;;;;;;;;;18.14;58.08;99779.16;5174004;27;794;-57
2022/04/27 05:42:07;;;;;;;;;;;;;;;18.24;58.01;99774.41;5173894;27;1009;-57
2022/04/27 05:44:34;;;;;;;;;;;;;;;18.17;57.89;99778.25;5173867;27;927;-57
2022/04/27 05:47:01;;;;;;;;;;;;;;;18.15;57.98;99779.94;5173900;27;1885;-57
2022/04/27 05:49:27;;;;;;;;;;;;;;;18.15;57.58;99774.34;5177125;27;839;-57
2022/04/27 05:51:54;;;;;;;;;;;;;;;18.16;57.66;99773.91;5178075;27;829;-57
2022/04/27 05:54:21;;;;;;;;;;;;;;;18.22;57.10;99788.09;5178049;27;817;-57
2022/04/27 05:56:49;;;;;;;;;;;;;;;18.24;57.33;99785.59;5178225;27;845;-57
2022/04/27 05:59:17;;;;;;;;;;;;;;;18.26;57.48;99796.31;5177809;27;940;-57
2022/04/27 06:01:45;;;;;;;;;;;;;;;18.34;56.96;99789.25;5177920;27;801;-57
2022/04/27 06:04:12;;;;;;;;;;;;;;;18.49;56.81;99797.88;5177799;27;924;-57
2022/04/27 06:06:39;;;;;;;;;;;;;;;18.59;56.35;99795.94;5177607;27;1881;-57
2022/04/27 06:09:06;;;;;;;;;;;;;;;18.56;56.63;99801.19;5177808;27;879;-57
2022/04/27 06:11:32;;;;;;;;;;;;;;;18.54;57.33;99795.28;5177871;27;789;-57
2022/04/27 06:13:59;;;;;;;;;;;;;;;18.57;58.05;99799.94;5177656;27;908;-57
2022/04/27 06:16:27;;;;;;;;;;;;;;;18.67;57.35;99788.78;5177813;27;895;-57
2022/04/27 06:18:53;;;;;;;;;;;;;;;18.93;56.42;99795.03;5177553;27;937;-57
2022/04/27 06:21:21;;;;;;;;;;;;;;;19.11;55.59;99797.13;5177479;27;850;-57
2022/04/27 06:23:48;;;;;;;;;;;;;;;19.45;55.41;99787.72;5177438;27;940;-57
2022/04/27 06:26:15;;;;;;;;;;;;;;;19.74;54.26;99795.75;5176866;27;1980;-57
2022/04/27 06:28:41;;;;;;;;;;;;;;;20.46;53.17;99794.59;5177326;27;825;-57
2022/04/27 06:31:09;;;;;;;;;;;;;;;21.10;51.80;99799.25;5177249;27;849;-57
2022/04/27 06:33:35;;;;;;;;;;;;;;;21.45;50.98;99802.38;5177329;27;809;-57
2022/04/27 06:36:02;;;;;;;;;;;;;;;21.70;51.19;99801.13;5177065;27;873;-57
2022/04/27 06:38:29;;;;;;;;;;;;;;;21.78;50.46;99795.91;5177233;27;798;-57
2022/04/27 06:40:56;;;;;;;;;;;;;;;21.96;50.83;99807.03;5177068;27;916;-57
2022/04/27 06:43:23;;;;;;;;;;;;;;;22.41;50.56;99802.28;5177038;27;845;-57
2022/04/27 06:45:50;;;;;;;;;;;;;;;22.15;49.81;99804.06;5177078;27;896;-57
2022/04/27 06:48:18;;;;;;;;;;;;;;;22.91;49.80;99800.78;5176772;27;1893;-57
2022/04/27 06:50:44;;;;;;;;;;;;;;;24.94;44.38;99803.25;5176964;27;802;-57
2022/04/27 06:53:11;;;;;;;;;;;;;;;26.66;40.63;99795.25;5176839;27;900;-57
2022/04/27 06:55:38;;;;;;;;;;;;;;;28.14;37.40;99804.22;5176749;27;916;-57
2022/04/27 06:58:05;;;;;;;;;;;;;;;29.48;34.94;99807.28;5176787;27;907;-57
2022/04/27 07:00:32;;;;;;;;;;;;;;;30.32;33.51;99814.00;5176204;27;924;-57
2022/04/27 07:02:59;;;;;;;;;;;;;;;29.41;33.91;99813.56;5176909;27;846;-57
2022/04/27 07:05:27;;;;;;;;;;;;;;;27.55;37.63;99817.63;5176548;27;829;-57
2022/04/27 07:07:54;;;;;;;;;;;;;;;26.50;38.53;99824.34;5176501;27;1948;-57
2022/04/27 07:10:20;;;;;;;;;;;;;;;25.41;40.01;99827.25;5176928;27;813;-57
2022/04/27 07:12:47;;;;;;;;;;;;;;;25.06;41.89;99833.16;5176480;27;1043;-57
2022/04/27 07:15:14;;;;;;;;;;;;;;;24.67;43.02;99833.59;5176522;27;802;-57
2022/04/27 07:17:41;;;;;;;;;;;;;;;24.13;43.34;99828.41;5176432;27;868;-58
2022/04/27 07:20:08;;;;;;;;;;;;;;;24.48;43.42;99844.44;5176267;27;884;-58
2022/04/27 07:22:36;;;;;;;;;;;;;;;26.74;39.94;99825.94;5176450;27;868;-58
2022/04/27 07:25:03;;;;;;;;;;;;;;;28.69;34.68;99831.50;5176579;27;805;-58
2022/04/27 07:27:31;;;;;;;;;;;;;;;29.74;31.91;99838.06;5175710;27;2026;-58
2022/04/27 07:29:59;;;;;;;;;;;;;;;30.69;29.67;99836.00;5176431;27;963;-56
2022/04/27 07:32:25;;;;;;;;;;;;;;;31.20;28.54;99837.28;5176095;27;935;-57
2022/04/27 07:34:55;;;;;;;;;;;;;;;31.62;27.68;99837.53;5176248;27;889;-57
2022/04/27 07:37:22;;;;;;;;;;;;;;;31.52;27.76;99832.25;5175954;27;956;-57
2022/04/27 07:39:49;;;;;;;;;;;;;;;31.48;26.53;99828.97;5176028;27;801;-57
2022/04/27 07:42:16;;;;;;;;;;;;;;;31.77;26.24;99829.16;5175907;27;892;-57
2022/04/27 07:44:43;;;;;;;;;;;;;;;31.58;26.74;99832.16;5175756;27;908;-57
2022/04/27 07:47:09;;;;;;;;;;;;;;;31.24;26.77;99838.47;5175709;27;1966;-57
2022/04/27 07:49:36;;;;;;;;;;;;;;;30.23;27.54;99846.50;5175741;27;797;-58
2022/04/27 07:52:03;;;;;;;;;;;;;;;29.66;27.30;99839.94;5175715;27;830;-57
2022/04/27 07:54:30;;;;;;;;;;;;;;;29.22;28.29;99839.13;5175671;27;892;-57
2022/04/27 07:56:58;;;;;;;;;;;;;;;28.58;30.36;99840.13;5175665;27;793;-56
2022/04/27 07:59:26;;;;;;;;;;;;;;;28.13;31.76;99842.44;5175564;27;896;-57
2022/04/27 08:01:51;;;;;;;;;;;;;;;28.02;29.98;99840.44;5175477;27;897;-57
2022/04/27 08:04:18;;;;;;;;;;;;;;;28.25;30.73;99844.72;5156833;27;873;-57
2022/04/27 08:06:45;;;;;;;;;;;;;;;28.76;29.79;99841.53;5175380;27;1909;-57
2022/04/27 08:09:12;;;;;;;;;;;;;;;29.02;30.67;99849.63;5175325;27;838;-57
2022/04/27 08:11:41;;;;;;;;;;;;;;;29.18;30.03;99847.19;5174471;27;853;-57
2022/04/27 08:14:07;;;;;;;;;;;;;;;29.21;30.28;99846.91;5175259;27;957;-57
2022/04/27 08:16:34;;;;;;;;;;;;;;;29.21;31.07;99848.94;5156672;27;884;-57
2022/04/27 08:19:01;;;;;;;;;;;;;;;28.59;31.70;99853.06;5175116;27;924;-57
2022/04/27 08:21:28;;;;;;;;;;;;;;;28.46;32.17;99853.63;5175061;27;912;-58
2022/04/27 08:23:55;;;;;;;;;;;;;;;28.52;31.71;99845.06;5175273;27;844;-57
2022/04/27 08:26:22;;;;;;;;;;;;;;;28.26;31.90;99848.31;5174531;27;1909;-57
2022/04/27 08:28:49;;;;;;;;;;;;;;;26.14;34.81;99862.84;5174972;27;919;-57
2022/04/27 08:31:18;;;;;;;;;;;;;;;24.98;37.35;99855.44;5174904;27;917;-56
2022/04/27 08:33:45;;;;;;;;;;;;;;;25.97;33.54;99854.31;5175129;27;853;-56
2022/04/27 08:36:12;;;;;;;;;;;;;;;26.45;33.37;99844.94;5156579;27;865;-57
2022/04/27 08:38:39;;;;;;;;;;;;;;;26.91;33.47;99851.44;5174882;27;820;-56
2022/04/27 08:41:06;;;;;;;;;;;;;;;27.26;32.40;99850.94;5174759;27;908;-57
2022/04/27 08:43:32;;;;;;;;;;;;;;;27.66;32.76;99843.88;5175356;27;810;-57
2022/04/27 08:46:01;;;;;;;;;;;;;;;28.16;32.32;99842.16;5174661;27;818;-57
2022/04/27 08:48:29;;;;;;;;;;;;;;;28.21;32.41;99846.28;5174786;27;1981;-57
2022/04/27 08:50:56;;;;;;;;;;;;;;;28.30;31.08;99845.97;5174752;27;919;-57
2022/04/27 08:53:23;;;;;;;;;;;;;;;28.74;30.74;99844.13;5175007;27;827;-57
2022/04/27 08:55:52;;;;;;;;;;;;;;;29.33;30.67;99846.78;5175070;27;797;-57
2022/04/27 08:58:21;;;;;;;;;;;;;;;29.67;27.43;99845.09;5174411;27;952;-57
2022/04/27 09:00:48;;;;;;;;;;;;;;;28.68;27.66;99847.03;5174711;27;929;-57
2022/04/27 09:03:25;;;;;;;;;;;;;;;28.33;26.80;99847.75;5174314;27;1042;-57
2022/04/27 09:06:01;;;;;;;;;;;;;;;27.82;27.32;99842.28;5174368;27;865;-57
2022/04/27 09:08:37;;;;;;;;;;;;;;;27.75;29.22;99851.34;5174296;27;1943;-57
2022/04/27 09:11:21;;;;;;;;;;;;;;;27.96;28.79;99845.38;5174332;27;845;-55
2022/04/27 09:13:49;;;;;;;;;;;;;;;27.77;27.01;99857.28;5174553;27;854;-56
2022/04/27 09:16:18;;;;;;;;;;;;;;;27.61;28.04;99847.53;5174200;27;829;-56
2022/04/27 09:21:56;;;;;;;;;;;;;;;26.78;31.10;99849.91;5174310;27;655;-56
2022/04/27 09:24:23;;;;;;;;;;;;;;;26.86;32.46;99850.16;5174080;27;885;-56
2022/04/27 09:27:02;;;;;;;;;;;;;;;26.53;31.80;99857.31;5173776;27;1902;-57
2022/04/27 09:29:28;;;;;;;;;;;;;;;26.09;33.38;99864.41;5173958;27;980;-56
2022/04/27 09:31:56;;;;;;;;;;;;;;;26.21;30.99;99854.66;5174245;27;856;-56
2022/04/27 09:34:29;;;;;;;;;;;;;;;26.48;33.72;99855.25;5174019;27;909;-57
2022/04/27 09:36:59;;;;;;;;;;;;;;;26.09;34.75;99861.56;5173935;27;913;-56
2022/04/27 09:39:26;;;;;;;;;;;;;;;25.89;35.32;99862.53;5173944;27;928;-56
2022/04/27 09:42:01;;;;;;;;;;;;;;;25.84;35.24;99854.75;5173972;27;794;-56
2022/04/27 09:44:28;;;;;;;;;;;;;;;25.95;35.82;99857.66;5174317;27;829;-56
2022/04/27 09:46:54;;;;;;;;;;;;;;;25.60;36.32;99864.38;5155463;27;1905;-57
2022/04/27 09:49:21;;;;;;;;;;;;;;;25.54;35.14;99857.16;5174619;27;778;-56
2022/04/27 09:51:51;;;;;;;;;;;;;;;25.75;34.40;99860.63;5174325;27;805;-56
2022/04/27 09:54:21;;;;;;;;;;;;;;;26.03;35.97;99857.94;5173785;27;897;-56
2022/04/27 09:56:50;;;;;;;;;;;;;;;25.74;35.61;99857.00;5173845;27;813;-56
2022/04/27 10:28:18;;;;;;;;;;;;;;;23.20;39.82;99857.16;5070955;28;1918;-56
2022/04/27 10:30:46;;;;;;;;;;;;;;;23.42;39.54;99859.50;5070934;28;956;-54
2022/04/27 10:33:32;;;;;;;;;;;;;;;23.68;40.43;99855.25;5069565;28;826;-54
2022/04/27 10:36:18;;;;;;;;;;;;;;;23.69;38.16;99859.66;5074370;28;1909;-54
2022/04/27 10:39:05;;;;;;;;;;;;;;;23.70;38.97;99858.38;5074362;28;1489;-56
2022/04/27 10:41:32;;;;;;;;;;;;;;;23.76;38.82;99854.38;5074340;28;1304;-55
2022/04/27 10:43:59;;;;;;;;;;;;;;;23.83;38.51;99847.53;5074580;28;794;-56
2022/04/27 10:46:39;;;;;;;;;;;;;;;23.70;37.74;99852.72;5074225;28;1909;-53
2022/04/27 10:52:10;;;;;;;;;;;;;;;23.38;39.58;99838.44;5074262;28;655;-56
2022/04/27 10:54:37;;;;;;;;;;;;;;;23.73;39.38;99834.81;5074090;28;908;-54
2022/04/27 10:57:16;;;;;;;;;;;;;;;23.38;38.75;99844.84;5074057;28;880;-55
2022/04/27 10:59:43;;;;;;;;;;;;;;;23.26;37.71;99845.97;5073945;28;916;-56
2022/04/27 11:02:29;;;;;;;;;;;;;;;23.55;39.75;99833.78;5074155;28;845;-54
2022/04/27 11:04:56;;;;;;;;;;;;;;;23.68;37.00;99841.16;5073810;28;957;-56
2022/04/27 11:07:34;;;;;;;;;;;;;;;23.54;37.89;99846.38;5073901;28;1952;-56
2022/04/27 11:10:10;;;;;;;;;;;;;;;23.64;37.98;99844.19;5073808;28;918;-56
2022/04/27 11:12:38;;;;;;;;;;;;;;;23.79;37.07;99838.50;5074199;28;778;-54
2022/04/27 11:15:08;;;;;;;;;;;;;;;23.72;37.76;99839.66;5073880;28;821;-54
2022/04/27 11:17:34;;;;;;;;;;;;;;;23.77;37.15;99838.22;5072460;28;872;-55
2022/04/27 11:20:03;;;;;;;;;;;;;;;23.66;37.80;99850.09;5073951;28;1047;-56
2022/04/27 11:22:38;;;;;;;;;;;;;;;23.52;37.45;99843.25;5073598;28;889;-55
2022/04/27 11:25:07;;;;;;;;;;;;;;;23.44;38.50;99839.28;5073486;28;1010;-56
2022/04/27 11:27:35;;;;;;;;;;;;;;;23.64;38.87;99847.00;5090922;28;1970;-56
2022/04/27 11:30:06;;;;;;;;;;;;;;;23.75;38.73;99838.69;5093670;28;888;-56
2022/04/27 11:32:31;;;;;;;;;;;;;;;23.81;36.38;99836.75;5075809;28;842;-56
2022/04/27 11:38:00;;;;;;;;;;;;;;;23.56;37.67;99834.59;5093574;28;605;-55
2022/04/27 11:43:32;;;;;;;;;;;;;;;23.55;39.62;99830.97;5093450;28;612;-56
2022/04/27 11:45:59;;;;;;;;;;;;;;;23.75;36.81;99829.47;5093338;28;994;-55
2022/04/27 11:48:29;;;;;;;;;;;;;;;23.50;36.66;99833.75;5093299;28;1967;-56
2022/04/27 11:50:57;;;;;;;;;;;;;;;23.31;37.83;99839.63;5093323;28;850;-56
2022/04/27 11:53:23;;;;;;;;;;;;;;;23.17;37.77;99834.78;5093207;28;794;-56
2022/04/27 11:55:51;;;;;;;;;;;;;;;23.46;39.13;99831.13;5093410;28;830;-57
2022/04/27 11:58:23;;;;;;;;;;;;;;;23.65;38.50;99837.28;5093074;28;854;-55
2022/04/27 12:01:00;;;;;;;;;;;;;;;23.52;38.81;99848.13;5093260;28;905;-56
2022/04/27 12:03:26;;;;;;;;;;;;;;;23.73;37.36;99832.78;5093029;28;937;-54
2022/04/27 12:05:53;;;;;;;;;;;;;;;23.95;36.64;99840.75;5093001;28;858;-56
2022/04/27 12:08:23;;;;;;;;;;;;;;;24.20;39.40;99830.78;5092867;28;1943;-56
2022/04/27 12:10:50;;;;;;;;;;;;;;;24.23;35.53;99826.19;5092887;28;857;-56
2022/04/27 12:13:18;;;;;;;;;;;;;;;23.94;37.17;99827.13;5093116;28;881;-57
2022/04/27 12:15:47;;;;;;;;;;;;;;;23.91;37.60;99828.13;5092802;28;798;-56
2022/04/27 12:18:17;;;;;;;;;;;;;;;23.78;37.34;99826.44;5092768;28;846;-56
2022/04/27 12:20:46;;;;;;;;;;;;;;;23.77;38.66;99824.09;5092694;28;848;-57
2022/04/27 12:23:13;;;;;;;;;;;;;;;23.80;38.57;99826.72;5092490;28;948;-56
2022/04/27 12:25:56;;;;;;;;;;;;;;;23.86;38.91;99823.22;5092501;28;1157;-56
2022/04/27 12:28:24;;;;;;;;;;;;;;;23.97;38.03;99823.34;5092468;28;1914;-56
2022/04/27 12:30:53;;;;;;;;;;;;;;;24.05;37.24;99828.06;5092505;28;1042;-56
2022/04/27 12:33:30;;;;;;;;;;;;;;;23.83;37.81;99827.78;5092556;28;786;-56
2022/04/27 12:39:02;;;;;;;;;;;;;;;23.94;37.45;99822.28;5092768;28;624;-56
2022/04/27 12:41:30;;;;;;;;;;;;;;;24.10;36.62;99826.56;5092529;28;956;-56
2022/04/27 12:44:05;;;;;;;;;;;;;;;24.12;37.52;99817.63;5092283;28;826;-56
2022/04/27 12:46:32;;;;;;;;;;;;;;;24.10;36.60;99820.91;5092475;28;1893;-54
2022/04/27 12:49:06;;;;;;;;;;;;;;;24.04;37.00;99814.44;5092510;28;814;-56
2022/04/27 12:51:34;;;;;;;;;;;;;;;24.04;36.89;99814.44;5092172;28;810;-56
2022/04/27 12:54:04;;;;;;;;;;;;;;;24.04;38.53;99815.19;5091955;28;878;-56
2022/04/27 12:56:37;;;;;;;;;;;;;;;24.01;36.12;99806.97;5092026;28;1139;-56
2022/04/27 12:59:07;;;;;;;;;;;;;;;23.95;36.34;99809.72;5092184;28;832;-56
2022/04/27 13:01:36;;;;;;;;;;;;;;;24.03;36.39;99807.25;5091959;28;948;-56
2022/04/27 13:04:03;;;;;;;;;;;;;;;24.02;35.90;99812.09;5092202;28;853;-55
2022/04/27 13:06:30;;;;;;;;;;;;;;;23.86;36.22;99804.22;5091815;28;1889;-56
2022/04/27 13:11:55;;;;;;;;;;;;;;;23.77;36.69;99810.78;5091850;28;862;-56
2022/04/27 13:11:57;;;;;;;;;;;;;;;23.64;36.42;99804.69;5091665;28;852;-56
2022/04/27 13:14:27;;;;;;;;;;;;;;;23.57;37.95;99800.22;5091897;28;873;-56
2022/04/27 13:16:54;;;;;;;;;;;;;;;23.42;38.66;99805.16;5092019;28;798;-56
2022/04/27 13:19:23;;;;;;;;;;;;;;;23.49;39.36;99799.09;5091737;28;817;-56
2022/04/27 13:21:50;;;;;;;;;;;;;;;23.54;38.15;99803.28;5092058;28;782;-56
2022/04/27 13:24:17;;;;;;;;;;;;;;;23.27;39.06;99791.13;5091585;28;856;-56
2022/04/27 13:26:44;;;;;;;;;;;;;;;22.99;38.02;99802.72;5091484;28;1906;-56
2022/04/27 13:29:10;;;;;;;;;;;;;;;22.88;39.84;99801.78;5091844;28;790;-56
2022/04/27 13:31:37;;;;;;;;;;;;;;;22.83;38.79;99798.38;5073558;28;1203;-56
2022/04/27 13:34:04;;;;;;;;;;;;;;;22.90;39.17;99794.38;5091533;28;826;-56
2022/04/27 13:36:29;;;;;;;;;;;;;;;22.90;38.76;99796.44;5091654;28;870;-56
2022/04/27 13:38:56;;;;;;;;;;;;;;;23.14;39.05;99794.25;5091496;28;874;-56
2022/04/27 13:41:22;;;;;;;;;;;;;;;23.29;37.63;99801.91;5091548;28;861;-56
2022/04/27 13:43:51;;;;;;;;;;;;;;;22.81;37.79;99798.09;5056772;28;839;-56
2022/04/27 13:46:18;;;;;;;;;;;;;;;22.74;39.11;99803.34;5091516;28;1890;-56
2022/04/27 13:48:45;;;;;;;;;;;;;;;22.91;39.17;99797.97;5091361;28;867;-56
2022/04/27 13:51:17;;;;;;;;;;;;;;;22.91;38.81;99790.28;5091497;28;889;-56
2022/04/27 13:53:44;;;;;;;;;;;;;;;22.90;39.62;99787.97;5091215;28;902;-56
2022/04/27 13:56:10;;;;;;;;;;;;;;;23.07;38.87;99796.72;5091452;28;874;-56
2022/04/27 13:58:36;;;;;;;;;;;;;;;22.97;38.61;99793.19;5091411;28;814;-56
2022/04/27 14:01:04;;;;;;;;;;;;;;;22.70;40.39;99780.22;5091393;28;806;-56
2022/04/27 14:03:31;;;;;;;;;;;;;;;22.72;39.44;99781.28;5091383;28;794;-56
2022/04/27 14:05:58;;;;;;;;;;;;;;;22.81;40.38;99786.06;5091322;28;826;-56
2022/04/27 14:08:24;;;;;;;;;;;;;;;22.96;39.51;99783.22;5091168;28;1953;-56
2022/04/27 14:10:52;;;;;;;;;;;;;;;23.18;40.53;99783.56;5095216;28;848;-56